Time,TemperatureF,DewpointF,PressureIn,WindDirection,WindDirectionDegrees,WindSpeedMPH,WindSpeedGustMPH,Humidity,HourlyPrecipIn,Conditions,Clouds,dailyrainin,SoftwareType,DateUTC
2013-03-03 00:02:00,15.0,-99.9,30.14,WNW,290,10.0,17.0,-999,-99.99,,,-99.99,,2013-03-03 06:02:00,
2013-03-03 00:11:00,15.0,-99.9,30.14,WNW,290,10.0,17.0,-999,-99.99,,,-99.99,,2013-03-03 06:11:00,
2013-03-03 00:22:00,15.0,-99.9,30.14,WNW,290,10.0,17.0,-999,-99.99,,,-99.99,,2013-03-03 06:22:00,
2013-03-03 00:32:00,14.0,-99.9,30.14,WNW,300,9.0,17.0,-999,-99.99,,,-99.99,,2013-03-03 06:32:00,
2013-03-03 00:42:00,14.0,-99.9,30.14,WNW,300,9.0,17.0,-999,-99.99,,,-99.99,,2013-03-03 06:42:00,
2013-03-03 00:52:00,14.0,-99.9,30.14,WNW,300,9.0,17.0,-999,-99.99,,,-99.99,,2013-03-03 06:52:00,
2013-03-03 01:01:00,13.0,-99.9,30.13,WNW,290,10.0,14.0,-999,-99.99,,,-99.99,,2013-03-03 07:01:00,
2013-03-03 01:11:00,13.0,-99.9,30.13,WNW,290,10.0,14.0,-999,-99.99,,,-99.99,,2013-03-03 07:11:00,
2013-03-03 01:22:00,13.0,-99.9,30.13,WNW,290,10.0,14.0,-999,-99.99,,,-99.99,,2013-03-03 07:22:00,
2013-03-03 01:32:00,13.0,-99.9,30.13,WNW,290,10.0,16.0,-999,-99.99,,,-99.99,,2013-03-03 07:32:00,
2013-03-03 01:42:00,13.0,-99.9,30.13,WNW,290,10.0,16.0,-999,-99.99,,,-99.99,,2013-03-03 07:42:00,
2013-03-03 01:52:00,13.0,-99.9,30.13,WNW,290,10.0,16.0,-999,-99.99,,,-99.99,,2013-03-03 07:52:00,
2013-03-03 02:01:00,12.0,-99.9,30.12,WNW,300,9.0,13.0,-999,-99.99,,,-99.99,,2013-03-03 08:01:00,
2013-03-03 02:11:00,12.0,-99.9,30.12,WNW,300,9.0,13.0,-999,-99.99,,,-99.99,,2013-03-03 08:11:00,
2013-03-03 02:21:00,12.0,-99.9,30.12,WNW,300,9.0,13.0,-999,-99.99,,,-99.99,,2013-03-03 08:21:00,
2013-03-03 02:32:00,11.0,-99.9,30.12,WNW,300,7.0,17.0,-999,-99.99,,,-99.99,,2013-03-03 08:32:00,
2013-03-03 02:42:00,11.0,-99.9,30.12,WNW,300,7.0,17.0,-999,-99.99,,,-99.99,,2013-03-03 08:42:00,
2013-03-03 02:54:00,11.0,-99.9,30.12,WNW,300,7.0,17.0,-999,-99.99,,,-99.99,,2013-03-03 08:54:00,
2013-03-03 03:02:00,11.0,-99.9,30.11,WNW,290,8.0,10.0,-999,-99.99,,,-99.99,,2013-03-03 09:02:00,
2013-03-03 03:12:00,11.0,-99.9,30.11,WNW,290,8.0,10.0,-999,-99.99,,,-99.99,,2013-03-03 09:12:00,
2013-03-03 03:22:00,11.0,-99.9,30.11,WNW,300,8.0,13.0,-999,-99.99,,,-99.99,,2013-03-03 09:22:00,
2013-03-03 03:32:00,11.0,-99.9,30.11,WNW,300,8.0,13.0,-999,-99.99,,,-99.99,,2013-03-03 09:32:00,
2013-03-03 03:42:00,11.0,-99.9,30.11,WNW,300,8.0,13.0,-999,-99.99,,,-99.99,,2013-03-03 09:42:00,
2013-03-03 03:52:00,11.0,-99.9,30.11,WNW,300,8.0,13.0,-999,-99.99,,,-99.99,,2013-03-03 09:52:00,
2013-03-03 04:01:00,11.0,-99.9,30.10,WNW,290,8.0,11.0,-999,-99.99,,,-99.99,,2013-03-03 10:01:00,
2013-03-03 04:12:00,11.0,-99.9,30.10,WNW,290,8.0,11.0,-999,-99.99,,,-99.99,,2013-03-03 10:12:00,
2013-03-03 04:22:00,11.0,-99.9,30.11,WNW,300,8.0,13.0,-999,-99.99,,,-99.99,,2013-03-03 10:22:00,
2013-03-03 04:32:00,11.0,-99.9,30.11,WNW,300,8.0,13.0,-999,-99.99,,,-99.99,,2013-03-03 10:32:00,
2013-03-03 04:42:00,11.0,-99.9,30.11,WNW,300,8.0,13.0,-999,-99.99,,,-99.99,,2013-03-03 10:42:00,
2013-03-03 04:52:00,11.0,-99.9,30.11,WNW,300,8.0,13.0,-999,-99.99,,,-99.99,,2013-03-03 10:52:00,
2013-03-03 05:02:00,11.0,-99.9,30.11,WNW,300,8.0,13.0,-999,-99.99,,,-99.99,,2013-03-03 11:02:00,
2013-03-03 05:11:00,11.0,-99.9,30.11,WNW,300,8.0,13.0,-999,-99.99,,,-99.99,,2013-03-03 11:11:00,
2013-03-03 05:22:00,11.0,-99.9,30.11,WNW,300,8.0,13.0,-999,-99.99,,,-99.99,,2013-03-03 11:22:00,
2013-03-03 05:32:00,11.0,-99.9,30.11,WNW,300,8.0,13.0,-999,-99.99,,,-99.99,,2013-03-03 11:32:00,
2013-03-03 05:42:00,11.0,-99.9,30.11,WNW,300,8.0,13.0,-999,-99.99,,,-99.99,,2013-03-03 11:42:00,
2013-03-03 05:53:00,11.0,-99.9,30.11,WNW,300,8.0,13.0,-999,-99.99,,,-99.99,,2013-03-03 11:53:00,
2013-03-03 06:02:00,10.0,-99.9,30.12,WNW,290,7.0,10.0,-999,-99.99,,,-99.99,,2013-03-03 12:02:00,
2013-03-03 06:11:00,10.0,-99.9,30.12,WNW,290,7.0,10.0,-999,-99.99,,,-99.99,,2013-03-03 12:11:00,
2013-03-03 06:22:00,10.0,-99.9,30.12,WNW,290,7.0,10.0,-999,-99.99,,,-99.99,,2013-03-03 12:22:00,
2013-03-03 06:32:00,9.0,-99.9,30.13,WNW,290,7.0,11.0,-999,-99.99,,,-99.99,,2013-03-03 12:32:00,
2013-03-03 06:43:00,9.0,-99.9,30.13,WNW,290,7.0,11.0,-999,-99.99,,,-99.99,,2013-03-03 12:43:00,
2013-03-03 06:53:00,9.0,-99.9,30.13,WNW,290,7.0,11.0,-999,-99.99,,,-99.99,,2013-03-03 12:53:00,
2013-03-03 07:02:00,10.0,-99.9,30.13,WNW,290,7.0,11.0,-999,-99.99,,,-99.99,,2013-03-03 13:02:00,
2013-03-03 07:11:00,10.0,-99.9,30.13,WNW,290,7.0,11.0,-999,-99.99,,,-99.99,,2013-03-03 13:11:00,
2013-03-03 07:22:00,10.0,-99.9,30.13,WNW,290,7.0,11.0,-999,-99.99,,,-99.99,,2013-03-03 13:22:00,
2013-03-03 07:32:00,11.0,-99.9,30.13,WNW,290,8.0,11.0,-999,-99.99,,,-99.99,,2013-03-03 13:32:00,
2013-03-03 07:42:00,11.0,-99.9,30.13,WNW,290,8.0,11.0,-999,-99.99,,,-99.99,,2013-03-03 13:42:00,
2013-03-03 07:52:00,11.0,-99.9,30.13,WNW,290,8.0,11.0,-999,-99.99,,,-99.99,,2013-03-03 13:52:00,
2013-03-03 08:02:00,12.0,-99.9,30.13,WNW,290,7.0,13.0,-999,-99.99,,,-99.99,,2013-03-03 14:02:00,
2013-03-03 08:11:00,12.0,-99.9,30.13,WNW,290,7.0,13.0,-999,-99.99,,,-99.99,,2013-03-03 14:11:00,
2013-03-03 08:22:00,12.0,-99.9,30.14,WNW,290,10.0,14.0,-999,-99.99,,,-99.99,,2013-03-03 14:22:00,
2013-03-03 08:32:00,12.0,-99.9,30.14,WNW,290,10.0,14.0,-999,-99.99,,,-99.99,,2013-03-03 14:32:00,
2013-03-03 08:42:00,12.0,-99.9,30.14,WNW,290,10.0,14.0,-999,-99.99,,,-99.99,,2013-03-03 14:42:00,
2013-03-03 08:52:00,12.0,-99.9,30.14,WNW,290,10.0,14.0,-999,-99.99,,,-99.99,,2013-03-03 14:52:00,
2013-03-03 09:02:00,13.0,-99.9,30.13,NW,310,9.0,13.0,-999,-99.99,,,-99.99,,2013-03-03 15:02:00,
2013-03-03 09:11:00,13.0,-99.9,30.13,NW,310,9.0,13.0,-999,-99.99,,,-99.99,,2013-03-03 15:11:00,
2013-03-03 09:22:00,14.0,-99.9,30.13,NW,310,9.0,14.0,-999,-99.99,,,-99.99,,2013-03-03 15:22:00,
2013-03-03 09:33:00,14.0,-99.9,30.13,NW,310,9.0,14.0,-999,-99.99,,,-99.99,,2013-03-03 15:33:00,
2013-03-03 09:40:00,16.0,-99.9,30.12,NW,310,8.0,10.0,-999,-99.99,,,-99.99,,2013-03-03 15:40:00,
2013-03-03 09:42:00,14.0,-99.9,30.13,NW,310,9.0,14.0,-999,-99.99,,,-99.99,,2013-03-03 15:42:00,
2013-03-03 09:52:00,14.0,-99.9,30.13,NW,310,9.0,14.0,-999,-99.99,,,-99.99,,2013-03-03 15:52:00,
2013-03-03 10:02:00,16.0,-99.9,30.12,NW,310,8.0,10.0,-999,-99.99,,,-99.99,,2013-03-03 16:02:00,
2013-03-03 10:12:00,16.0,-99.9,30.12,NW,310,8.0,10.0,-999,-99.99,,,-99.99,,2013-03-03 16:12:00,
2013-03-03 10:22:00,16.0,-99.9,30.12,NW,310,8.0,10.0,-999,-99.99,,,-99.99,,2013-03-03 16:22:00,
2013-03-03 10:32:00,16.0,-99.9,30.12,NW,310,8.0,10.0,-999,-99.99,,,-99.99,,2013-03-03 16:32:00,
2013-03-03 10:40:00,20.0,-99.9,30.11,WNW,300,8.0,11.0,-999,-99.99,,,-99.99,,2013-03-03 16:40:00,
2013-03-03 11:01:00,20.0,-99.9,30.11,WNW,300,8.0,11.0,-999,-99.99,,,-99.99,,2013-03-03 17:01:00,
2013-03-03 11:12:00,20.0,-99.9,30.11,WNW,300,8.0,11.0,-999,-99.99,,,-99.99,,2013-03-03 17:12:00,
2013-03-03 11:22:00,20.0,-99.9,30.11,WNW,300,8.0,11.0,-999,-99.99,,,-99.99,,2013-03-03 17:22:00,
2013-03-03 11:32:00,20.0,-99.9,30.11,WNW,300,8.0,11.0,-999,-99.99,,,-99.99,,2013-03-03 17:32:00,
2013-03-03 11:40:00,22.0,-99.9,30.11,NNW,330,11.0,16.0,-999,-99.99,,,-99.99,,2013-03-03 17:40:00,
2013-03-03 12:02:00,22.0,-99.9,30.11,NNW,330,11.0,16.0,-999,-99.99,,,-99.99,,2013-03-03 18:02:00,
2013-03-03 12:11:00,22.0,-99.9,30.11,NNW,330,11.0,16.0,-999,-99.99,,,-99.99,,2013-03-03 18:11:00,
2013-03-03 12:22:00,22.0,-99.9,30.11,NNW,330,11.0,16.0,-999,-99.99,,,-99.99,,2013-03-03 18:22:00,
2013-03-03 12:32:00,22.0,-99.9,30.11,NNW,330,11.0,16.0,-999,-99.99,,,-99.99,,2013-03-03 18:32:00,
2013-03-03 12:40:00,24.0,-99.9,30.08,North,350,6.0,8.0,-999,-99.99,,,-99.99,,2013-03-03 18:40:00,
2013-03-03 13:02:00,24.0,-99.9,30.08,North,350,6.0,8.0,-999,-99.99,,,-99.99,,2013-03-03 19:02:00,
2013-03-03 13:11:00,24.0,-99.9,30.08,North,350,6.0,8.0,-999,-99.99,,,-99.99,,2013-03-03 19:11:00,
2013-03-03 13:22:00,24.0,-99.9,30.08,North,350,6.0,8.0,-999,-99.99,,,-99.99,,2013-03-03 19:22:00,
2013-03-03 13:32:00,24.0,-99.9,30.08,North,350,6.0,8.0,-999,-99.99,,,-99.99,,2013-03-03 19:32:00,
2013-03-03 13:40:00,25.0,-99.9,30.07,NNW,340,3.0,8.0,-999,-99.99,,,-99.99,,2013-03-03 19:40:00,
2013-03-03 14:02:00,25.0,-99.9,30.07,NNW,340,3.0,8.0,-999,-99.99,,,-99.99,,2013-03-03 20:02:00,
2013-03-03 14:12:00,25.0,-99.9,30.07,NNW,340,3.0,8.0,-999,-99.99,,,-99.99,,2013-03-03 20:12:00,
2013-03-03 14:22:00,25.0,-99.9,30.07,NNW,340,3.0,8.0,-999,-99.99,,,-99.99,,2013-03-03 20:22:00,
2013-03-03 14:32:00,25.0,-99.9,30.07,NNW,340,3.0,8.0,-999,-99.99,,,-99.99,,2013-03-03 20:32:00,
2013-03-03 14:40:00,26.0,-99.9,30.06,NW,320,5.0,7.0,-999,-99.99,,,-99.99,,2013-03-03 20:40:00,
2013-03-03 15:02:00,26.0,-99.9,30.06,NW,320,5.0,7.0,-999,-99.99,,,-99.99,,2013-03-03 21:02:00,
2013-03-03 15:12:00,26.0,-99.9,30.06,NW,320,5.0,7.0,-999,-99.99,,,-99.99,,2013-03-03 21:12:00,
2013-03-03 15:22:00,26.0,-99.9,30.06,NW,320,5.0,7.0,-999,-99.99,,,-99.99,,2013-03-03 21:22:00,
2013-03-03 15:32:00,26.0,-99.9,30.06,NW,320,5.0,7.0,-999,-99.99,,,-99.99,,2013-03-03 21:32:00,
2013-03-03 15:40:00,26.0,-99.9,30.07,NW,320,3.0,6.0,-999,-99.99,,,-99.99,,2013-03-03 21:40:00,
2013-03-03 16:02:00,26.0,-99.9,30.07,NW,320,3.0,6.0,-999,-99.99,,,-99.99,,2013-03-03 22:02:00,
2013-03-03 16:11:00,26.0,-99.9,30.07,NW,320,3.0,6.0,-999,-99.99,,,-99.99,,2013-03-03 22:11:00,
2013-03-03 16:22:00,26.0,-99.9,30.07,NW,320,3.0,6.0,-999,-99.99,,,-99.99,,2013-03-03 22:22:00,
2013-03-03 16:32:00,26.0,-99.9,30.07,NW,320,3.0,6.0,-999,-99.99,,,-99.99,,2013-03-03 22:32:00,
2013-03-03 16:40:00,25.0,-99.9,30.07,NW,310,3.0,5.0,-999,-99.99,,,-99.99,,2013-03-03 22:40:00,
2013-03-03 17:02:00,25.0,-99.9,30.07,NW,310,3.0,5.0,-999,-99.99,,,-99.99,,2013-03-03 23:02:00,
2013-03-03 17:12:00,25.0,-99.9,30.07,NW,310,3.0,5.0,-999,-99.99,,,-99.99,,2013-03-03 23:12:00,
2013-03-03 17:22:00,25.0,-99.9,30.07,NW,310,3.0,5.0,-999,-99.99,,,-99.99,,2013-03-03 23:22:00,
2013-03-03 17:32:00,25.0,-99.9,30.07,NW,310,3.0,5.0,-999,-99.99,,,-99.99,,2013-03-03 23:32:00,
2013-03-03 17:40:00,23.0,-99.9,30.07,WNW,300,6.0,8.0,-999,-99.99,,,-99.99,,2013-03-03 23:40:00,
2013-03-03 18:02:00,23.0,-99.9,30.07,WNW,300,6.0,8.0,-999,-99.99,,,-99.99,,2013-03-04 00:02:00,
2013-03-03 18:11:00,23.0,-99.9,30.07,WNW,300,6.0,8.0,-999,-99.99,,,-99.99,,2013-03-04 00:11:00,
2013-03-03 18:22:00,23.0,-99.9,30.07,WNW,300,6.0,8.0,-999,-99.99,,,-99.99,,2013-03-04 00:22:00,
2013-03-03 18:32:00,23.0,-99.9,30.07,WNW,300,6.0,8.0,-999,-99.99,,,-99.99,,2013-03-04 00:32:00,
2013-03-03 19:02:00,21.0,-99.9,30.09,NW,320,7.0,8.0,-999,-99.99,,,-99.99,,2013-03-04 01:02:00,
2013-03-03 19:12:00,21.0,-99.9,30.09,NW,320,7.0,8.0,-999,-99.99,,,-99.99,,2013-03-04 01:12:00,
2013-03-03 19:22:00,21.0,-99.9,30.09,NW,310,5.0,16.0,-999,-99.99,,,-99.99,,2013-03-04 01:22:00,
2013-03-03 19:32:00,21.0,-99.9,30.09,NW,310,5.0,16.0,-999,-99.99,,,-99.99,,2013-03-04 01:32:00,
2013-03-03 19:42:00,21.0,-99.9,30.09,NW,310,5.0,16.0,-999,-99.99,,,-99.99,,2013-03-04 01:42:00,
2013-03-03 19:52:00,21.0,-99.9,30.09,NW,310,5.0,16.0,-999,-99.99,,,-99.99,,2013-03-04 01:52:00,
2013-03-03 20:01:00,19.0,-99.9,30.11,NW,310,5.0,5.0,-999,-99.99,,,-99.99,,2013-03-04 02:01:00,
2013-03-03 20:11:00,19.0,-99.9,30.11,NW,310,5.0,5.0,-999,-99.99,,,-99.99,,2013-03-04 02:11:00,
2013-03-03 20:22:00,19.0,-99.9,30.11,NW,310,5.0,5.0,-999,-99.99,,,-99.99,,2013-03-04 02:22:00,
2013-03-03 20:32:00,19.0,-99.9,30.11,NW,310,5.0,5.0,-999,-99.99,,,-99.99,,2013-03-04 02:32:00,
2013-03-03 20:42:00,19.0,-99.9,30.11,NW,320,5.0,7.0,-999,-99.99,,,-99.99,,2013-03-04 02:42:00,
2013-03-03 20:53:00,19.0,-99.9,30.11,NW,320,5.0,7.0,-999,-99.99,,,-99.99,,2013-03-04 02:53:00,
2013-03-03 21:02:00,21.0,-99.9,30.11,North,10,10.0,11.0,-999,-99.99,,,-99.99,,2013-03-04 03:02:00,
2013-03-03 21:12:00,21.0,-99.9,30.11,North,10,10.0,11.0,-999,-99.99,,,-99.99,,2013-03-04 03:12:00,
2013-03-03 21:22:00,21.0,-99.9,30.11,North,10,10.0,11.0,-999,-99.99,,,-99.99,,2013-03-04 03:22:00,
2013-03-03 21:32:00,21.0,-99.9,30.10,North,360,9.0,13.0,-999,-99.99,,,-99.99,,2013-03-04 03:32:00,
2013-03-03 21:42:00,21.0,-99.9,30.10,North,360,9.0,13.0,-999,-99.99,,,-99.99,,2013-03-04 03:42:00,
2013-03-03 21:53:00,21.0,-99.9,30.10,North,360,9.0,13.0,-999,-99.99,,,-99.99,,2013-03-04 03:53:00,
2013-03-03 22:02:00,20.0,-99.9,30.11,North,10,6.0,8.0,-999,-99.99,,,-99.99,,2013-03-04 04:02:00,
2013-03-03 22:11:00,20.0,-99.9,30.11,North,10,6.0,8.0,-999,-99.99,,,-99.99,,2013-03-04 04:11:00,
2013-03-03 22:22:00,20.0,-99.9,30.11,North,10,6.0,8.0,-999,-99.99,,,-99.99,,2013-03-04 04:22:00,
2013-03-03 22:32:00,20.0,-99.9,30.11,North,10,7.0,10.0,-999,-99.99,,,-99.99,,2013-03-04 04:32:00,
2013-03-03 22:42:00,20.0,-99.9,30.11,North,10,7.0,10.0,-999,-99.99,,,-99.99,,2013-03-04 04:42:00,
2013-03-03 22:52:00,20.0,-99.9,30.11,North,10,7.0,10.0,-999,-99.99,,,-99.99,,2013-03-04 04:52:00,
2013-03-03 23:01:00,17.0,-99.9,30.13,NNW,340,3.0,9.0,-999,-99.99,,,-99.99,,2013-03-04 05:01:00,
2013-03-03 23:11:00,17.0,-99.9,30.13,NNW,340,3.0,9.0,-999,-99.99,,,-99.99,,2013-03-04 05:11:00,
2013-03-03 23:22:00,17.0,-99.9,30.13,NNW,340,3.0,9.0,-999,-99.99,,,-99.99,,2013-03-04 05:22:00,
2013-03-03 23:32:00,16.0,-99.9,30.13,NW,320,3.0,9.0,-999,-99.99,,,-99.99,,2013-03-04 05:32:00,
2013-03-03 23:43:00,16.0,-99.9,30.13,NW,320,3.0,9.0,-999,-99.99,,,-99.99,,2013-03-04 05:43:00,
2013-03-03 23:52:00,16.0,-99.9,30.13,NW,320,3.0,9.0,-999,-99.99,,,-99.99,,2013-03-04 05:52:00,